KECP

Northwest Florida Beaches International Airport

Panama City, Florida, USA
KECP 181134Z 1812/1912 35007KT P6SM FEW050 FM181400 05010KT P6SM SCT050 FM190200 VRB04KT P6SM SCT040
Issued Valid From Valid To
Oct-18 @ 11:34 UTC
(26 minutes ago)
Oct-18 @ 12:00 UTC
(in a few seconds)
Oct-19 @ 12:00 UTC
(in 24 hours)
Oct-18 @ 12:00 to Oct-18 @ 14:00
KECP 181134Z 1812/1912 35007KT P6SM FEW050
Wind Visibility Clouds
350° at 7 knots Greater than 6 miles
  • Few at 5,000' AGL
From Oct-18 @ 14:00 to Oct-19 @ 02:00
FM181400 05010KT P6SM SCT050
Wind Visibility Clouds
50° at 10 knots Greater than 6 miles
  • Scattered at 5,000' AGL
From Oct-19 @ 02:00 to Oct-19 @ 12:00
FM190200 VRB04KT P6SM SCT040
Wind Visibility Clouds
Variable at 4 knots Greater than 6 miles
  • Scattered at 4,000' AGL
KECP 181134Z 1812/1912 35007KT P6SM FEW050 FM181400 05010KT P6SM SCT050 FM190200 VRB04KT P6SM SCT040
Issued Oct-18 @ 11:34 UTC
(26 minutes ago)
Valid From Oct-18 @ 12:00 UTC
(in a few seconds)
Valid To Oct-19 @ 12:00 UTC
(in 24 hours)
Oct-18 @ 12:00 - Oct-18 @ 14:00
Wind Visibility
350° at 7 knots Greater than 6 miles
Clouds
  • Few at 5,000' AGL
From Oct-18 @ 14:00 - Oct-19 @ 02:00
Wind Visibility
50° at 10 knots Greater than 6 miles
Clouds
  • Scattered at 5,000' AGL
From Oct-19 @ 02:00 - Oct-19 @ 12:00
Wind Visibility
Variable at 4 knots Greater than 6 miles
Clouds
  • Scattered at 4,000' AGL